sensor_id;sensor_type;location;lat;lon;timestamp;pressure;altitude;pressure_sealevel;temperature;humidity
62634;BME280;48704;50.534;6.442;2023-05-22T00:00:04;95427.84;;;14.70;100.00
62634;BME280;48704;50.534;6.442;2023-05-22T00:02:33;95422.50;;;14.84;100.00
62634;BME280;48704;50.534;6.442;2023-05-22T00:05:05;95416.09;;;14.94;100.00
62634;BME280;48704;50.534;6.442;2023-05-22T00:07:31;95413.06;;;14.81;100.00
62634;BME280;48704;50.534;6.442;2023-05-22T00:09:56;95420.44;;;14.67;100.00
62634;BME280;48704;50.534;6.442;2023-05-22T00:12:22;95411.53;;;14.80;100.00
62634;BME280;48704;50.534;6.442;2023-05-22T00:14:47;95408.72;;;14.69;100.00
62634;BME280;48704;50.534;6.442;2023-05-22T00:17:12;95414.59;;;14.82;100.00
62634;BME280;48704;50.534;6.442;2023-05-22T00:19:39;95414.59;;;14.65;100.00
62634;BME280;48704;50.534;6.442;2023-05-22T00:22:05;95417.00;;;14.02;100.00
62634;BME280;48704;50.534;6.442;2023-05-22T00:24:30;95411.16;;;14.05;100.00
62634;BME280;48704;50.534;6.442;2023-05-22T00:26:56;95400.47;;;14.10;100.00
62634;BME280;48704;50.534;6.442;2023-05-22T00:29:21;95406.06;;;14.10;100.00
62634;BME280;48704;50.534;6.442;2023-05-22T00:31:46;95403.09;;;14.41;100.00
62634;BME280;48704;50.534;6.442;2023-05-22T00:34:12;95405.41;;;14.54;100.00
62634;BME280;48704;50.534;6.442;2023-05-22T00:36:37;95403.06;;;14.30;100.00
62634;BME280;48704;50.534;6.442;2023-05-22T00:39:02;95407.13;;;14.34;100.00
62634;BME280;48704;50.534;6.442;2023-05-22T00:41:27;95400.56;;;14.43;100.00
62634;BME280;48704;50.534;6.442;2023-05-22T00:43:53;95400.00;;;14.28;100.00
62634;BME280;48704;50.534;6.442;2023-05-22T00:46:18;95394.84;;;14.15;100.00
62634;BME280;48704;50.534;6.442;2023-05-22T00:48:48;95400.25;;;14.35;100.00
62634;BME280;48704;50.534;6.442;2023-05-22T00:51:14;95390.38;;;14.46;100.00
62634;BME280;48704;50.534;6.442;2023-05-22T00:53:39;95398.00;;;14.45;100.00
62634;BME280;48704;50.534;6.442;2023-05-22T00:56:05;95395.16;;;14.39;100.00
62634;BME280;48704;50.534;6.442;2023-05-22T00:58:31;95400.00;;;14.28;100.00
62634;BME280;48704;50.534;6.442;2023-05-22T01:00:56;95403.03;;;14.19;100.00
62634;BME280;48704;50.534;6.442;2023-05-22T01:03:22;95397.66;;;14.10;100.00
62634;BME280;48704;50.534;6.442;2023-05-22T01:05:49;95398.66;;;13.95;100.00
62634;BME280;48704;50.534;6.442;2023-05-22T01:08:15;95396.81;;;13.81;100.00
62634;BME280;48704;50.534;6.442;2023-05-22T01:10:40;95398.88;;;13.86;100.00
62634;BME280;48704;50.534;6.442;2023-05-22T01:13:17;95399.03;;;13.60;100.00
62634;BME280;48704;50.534;6.442;2023-05-22T01:16:16;95394.41;;;13.52;100.00
62634;BME280;48704;50.534;6.442;2023-05-22T01:18:56;95394.72;;;13.65;100.00
62634;BME280;48704;50.534;6.442;2023-05-22T01:21:33;95397.78;;;13.67;100.00
62634;BME280;48704;50.534;6.442;2023-05-22T01:26:56;95395.00;;;13.78;100.00
62634;BME280;48704;50.534;6.442;2023-05-22T01:31:58;95386.16;;;13.96;100.00
62634;BME280;48704;50.534;6.442;2023-05-22T01:34:24;95391.25;;;13.92;100.00
62634;BME280;48704;50.534;6.442;2023-05-22T01:36:51;95395.25;;;13.69;100.00
62634;BME280;48704;50.534;6.442;2023-05-22T01:39:17;95394.59;;;13.43;100.00
62634;BME280;48704;50.534;6.442;2023-05-22T01:41:43;95396.84;;;13.27;100.00
62634;BME280;48704;50.534;6.442;2023-05-22T01:44:09;95388.81;;;13.09;100.00
62634;BME280;48704;50.534;6.442;2023-05-22T01:46:34;95393.84;;;13.05;100.00
62634;BME280;48704;50.534;6.442;2023-05-22T01:49:00;95388.44;;;13.27;100.00
62634;BME280;48704;50.534;6.442;2023-05-22T01:51:51;95384.75;;;13.10;100.00
62634;BME280;48704;50.534;6.442;2023-05-22T01:54:31;95390.97;;;13.25;100.00
62634;BME280;48704;50.534;6.442;2023-05-22T01:57:18;95391.53;;;13.41;100.00
62634;BME280;48704;50.534;6.442;2023-05-22T01:59:48;95389.53;;;13.47;100.00
62634;BME280;48704;50.534;6.442;2023-05-22T02:02:20;95387.22;;;13.34;100.00
62634;BME280;48704;50.534;6.442;2023-05-22T02:04:51;95396.56;;;13.25;100.00
62634;BME280;48704;50.534;6.442;2023-05-22T02:07:18;95384.84;;;13.21;100.00
62634;BME280;48704;50.534;6.442;2023-05-22T02:09:46;95388.38;;;13.16;100.00
62634;BME280;48704;50.534;6.442;2023-05-22T02:12:13;95388.81;;;13.09;100.00
62634;BME280;48704;50.534;6.442;2023-05-22T02:14:40;95403.47;;;13.30;100.00
62634;BME280;48704;50.534;6.442;2023-05-22T02:17:06;95388.06;;;13.14;100.00
62634;BME280;48704;50.534;6.442;2023-05-22T02:19:34;95395.75;;;13.19;100.00
62634;BME280;48704;50.534;6.442;2023-05-22T02:22:00;95391.50;;;13.29;100.00
62634;BME280;48704;50.534;6.442;2023-05-22T02:24:25;95389.53;;;13.47;100.00
62634;BME280;48704;50.534;6.442;2023-05-22T02:26:50;95381.75;;;13.67;100.00
62634;BME280;48704;50.534;6.442;2023-05-22T02:29:16;95383.28;;;13.74;100.00
62634;BME280;48704;50.534;6.442;2023-05-22T02:31:41;95382.00;;;13.75;100.00
62634;BME280;48704;50.534;6.442;2023-05-22T02:34:06;95377.69;;;13.68;100.00
62634;BME280;48704;50.534;6.442;2023-05-22T02:36:32;95380.22;;;13.66;100.00
62634;BME280;48704;50.534;6.442;2023-05-22T02:38:58;95378.41;;;13.58;100.00
62634;BME280;48704;50.534;6.442;2023-05-22T02:41:24;95375.53;;;13.47;100.00
62634;BME280;48704;50.534;6.442;2023-05-22T02:43:49;95379.06;;;13.36;100.00
62634;BME280;48704;50.534;6.442;2023-05-22T02:46:14;95376.72;;;13.23;100.00
62634;BME280;48704;50.534;6.442;2023-05-22T02:48:39;95379.34;;;13.44;100.00
62634;BME280;48704;50.534;6.442;2023-05-22T02:51:05;95372.22;;;13.43;100.00
62634;BME280;48704;50.534;6.442;2023-05-22T02:53:30;95365.16;;;13.10;100.00
62634;BME280;48704;50.534;6.442;2023-05-22T02:55:57;95368.41;;;13.03;100.00
62634;BME280;48704;50.534;6.442;2023-05-22T02:58:23;95359.63;;;12.79;100.00
62634;BME280;48704;50.534;6.442;2023-05-22T03:00:49;95360.63;;;12.76;100.00
62634;BME280;48704;50.534;6.442;2023-05-22T03:03:17;95358.28;;;13.11;100.00
62634;BME280;48704;50.534;6.442;2023-05-22T03:05:42;95365.88;;;13.05;100.00
62634;BME280;48704;50.534;6.442;2023-05-22T03:08:08;95359.97;;;12.92;100.00
62634;BME280;48704;50.534;6.442;2023-05-22T03:10:33;95363.94;;;12.80;100.00
62634;BME280;48704;50.534;6.442;2023-05-22T03:12:58;95365.13;;;12.67;100.00
62634;BME280;48704;50.534;6.442;2023-05-22T03:15:24;95363.09;;;12.99;100.00
62634;BME280;48704;50.534;6.442;2023-05-22T03:17:50;95358.00;;;13.03;100.00
62634;BME280;48704;50.534;6.442;2023-05-22T03:20:15;95358.50;;;13.02;100.00
62634;BME280;48704;50.534;6.442;2023-05-22T03:22:44;95364.59;;;13.00;100.00
62634;BME280;48704;50.534;6.442;2023-05-22T03:25:10;95364.59;;;13.00;100.00
62634;BME280;48704;50.534;6.442;2023-05-22T03:27:36;95364.84;;;12.97;100.00
62634;BME280;48704;50.534;6.442;2023-05-22T03:30:02;95365.13;;;12.99;100.00
62634;BME280;48704;50.534;6.442;2023-05-22T03:32:28;95366.84;;;12.91;100.00
62634;BME280;48704;50.534;6.442;2023-05-22T03:34:53;95369.59;;;12.85;100.00
62634;BME280;48704;50.534;6.442;2023-05-22T03:37:18;95361.28;;;12.59;100.00
62634;BME280;48704;50.534;6.442;2023-05-22T03:39:43;95364.75;;;12.86;100.00
62634;BME280;48704;50.534;6.442;2023-05-22T03:42:09;95364.75;;;12.86;100.00
62634;BME280;48704;50.534;6.442;2023-05-22T03:44:34;95355.59;;;12.48;100.00
62634;BME280;48704;50.534;6.442;2023-05-22T03:47:00;95357.22;;;12.60;100.00
62634;BME280;48704;50.534;6.442;2023-05-22T03:49:25;95359.63;;;12.79;100.00
62634;BME280;48704;50.534;6.442;2023-05-22T03:51:50;95367.59;;;12.54;100.00
62634;BME280;48704;50.534;6.442;2023-05-22T03:54:15;95364.19;;;12.76;100.00
62634;BME280;48704;50.534;6.442;2023-05-22T03:56:42;95362.97;;;12.83;100.00
62634;BME280;48704;50.534;6.442;2023-05-22T03:59:07;95363.41;;;12.76;100.00
62634;BME280;48704;50.534;6.442;2023-05-22T04:01:32;95359.09;;;12.75;100.00
62634;BME280;48704;50.534;6.442;2023-05-22T04:03:57;95358.63;;;12.82;100.00
62634;BME280;48704;50.534;6.442;2023-05-22T04:06:23;95359.72;;;12.90;100.00
62634;BME280;48704;50.534;6.442;2023-05-22T04:08:49;95357.72;;;12.96;100.00
62634;BME280;48704;50.534;6.442;2023-05-22T04:11:15;95355.97;;;12.98;100.00
62634;BME280;48704;50.534;6.442;2023-05-22T04:13:41;95355.66;;;12.91;100.00
62634;BME280;48704;50.534;6.442;2023-05-22T04:16:07;95350.66;;;12.69;100.00
62634;BME280;48704;50.534;6.442;2023-05-22T04:18:32;95357.66;;;12.53;100.00
62634;BME280;48704;50.534;6.442;2023-05-22T04:20:57;95355.25;;;12.72;100.00
62634;BME280;48704;50.534;6.442;2023-05-22T04:23:23;95359.66;;;12.84;100.00
62634;BME280;48704;50.534;6.442;2023-05-22T04:25:48;95354.88;;;12.90;100.00
62634;BME280;48704;50.534;6.442;2023-05-22T04:28:14;95362.34;;;12.67;100.00
62634;BME280;48704;50.534;6.442;2023-05-22T04:30:42;95366.41;;;12.35;100.00
62634;BME280;48704;50.534;6.442;2023-05-22T04:33:07;95374.50;;;12.64;100.00
62634;BME280;48704;50.534;6.442;2023-05-22T04:35:32;95368.41;;;12.66;100.00
62634;BME280;48704;50.534;6.442;2023-05-22T04:37:58;95372.41;;;12.54;100.00
62634;BME280;48704;50.534;6.442;2023-05-22T04:40:26;95381.34;;;12.63;100.00
62634;BME280;48704;50.534;6.442;2023-05-22T04:42:53;95378.66;;;12.75;100.00
62634;BME280;48704;50.534;6.442;2023-05-22T04:45:19;95379.31;;;12.58;100.00
62634;BME280;48704;50.534;6.442;2023-05-22T04:47:45;95379.47;;;12.81;100.00
62634;BME280;48704;50.534;6.442;2023-05-22T04:50:10;95375.00;;;12.63;100.00
62634;BME280;48704;50.534;6.442;2023-05-22T04:52:36;95383.16;;;12.61;100.00
62634;BME280;48704;50.534;6.442;2023-05-22T04:55:01;95386.19;;;13.00;100.00
62634;BME280;48704;50.534;6.442;2023-05-22T04:57:26;95378.72;;;13.17;100.00
62634;BME280;48704;50.534;6.442;2023-05-22T04:59:52;95389.78;;;13.06;100.00
62634;BME280;48704;50.534;6.442;2023-05-22T05:02:18;95385.72;;;13.07;100.00
62634;BME280;48704;50.534;6.442;2023-05-22T05:04:43;95391.97;;;13.22;100.00
62634;BME280;48704;50.534;6.442;2023-05-22T05:07:08;95395.56;;;13.28;100.00
62634;BME280;48704;50.534;6.442;2023-05-22T05:09:33;95390.53;;;13.44;100.00
62634;BME280;48704;50.534;6.442;2023-05-22T05:11:59;95394.06;;;13.38;100.00
62634;BME280;48704;50.534;6.442;2023-05-22T05:14:25;95392.25;;;13.24;100.00
62634;BME280;48704;50.534;6.442;2023-05-22T05:16:50;95385.72;;;13.07;100.00
62634;BME280;48704;50.534;6.442;2023-05-22T05:19:19;95398.25;;;13.60;100.00
62634;BME280;48704;50.534;6.442;2023-05-22T05:21:47;95394.75;;;13.76;100.00
62634;BME280;48704;50.534;6.442;2023-05-22T05:24:16;95395.44;;;13.54;100.00
62634;BME280;48704;50.534;6.442;2023-05-22T05:26:42;95391.69;;;13.74;100.00
62634;BME280;48704;50.534;6.442;2023-05-22T05:29:07;95396.09;;;13.92;100.00
62634;BME280;48704;50.534;6.442;2023-05-22T05:31:32;95394.09;;;14.03;100.00
62634;BME280;48704;50.534;6.442;2023-05-22T05:33:58;95392.81;;;14.04;100.00
62634;BME280;48704;50.534;6.442;2023-05-22T05:36:23;95393.59;;;14.05;100.00
62634;BME280;48704;50.534;6.442;2023-05-22T05:38:49;95389.75;;;14.14;100.00
62634;BME280;48704;50.534;6.442;2023-05-22T05:41:14;95390.53;;;14.09;100.00
62634;BME280;48704;50.534;6.442;2023-05-22T05:43:40;95394.38;;;14.28;100.00
62634;BME280;48704;50.534;6.442;2023-05-22T05:46:05;95397.50;;;14.41;100.00
62634;BME280;48704;50.534;6.442;2023-05-22T05:48:30;95393.13;;;14.34;100.00
62634;BME280;48704;50.534;6.442;2023-05-22T05:50:55;95396.69;;;14.29;100.00
62634;BME280;48704;50.534;6.442;2023-05-22T05:53:21;95387.81;;;14.42;100.00
62634;BME280;48704;50.534;6.442;2023-05-22T05:55:46;95401.84;;;14.42;100.00
62634;BME280;48704;50.534;6.442;2023-05-22T05:58:12;95395.41;;;14.36;100.00
62634;BME280;48704;50.534;6.442;2023-05-22T06:00:37;95399.53;;;14.46;100.00
62634;BME280;48704;50.534;6.442;2023-05-22T06:03:03;95407.69;;;14.55;100.00
62634;BME280;48704;50.534;6.442;2023-05-22T06:05:28;95404.91;;;14.61;100.00
62634;BME280;48704;50.534;6.442;2023-05-22T06:07:53;95410.44;;;14.27;100.00
62634;BME280;48704;50.534;6.442;2023-05-22T06:10:18;95410.25;;;14.48;100.00
62634;BME280;48704;50.534;6.442;2023-05-22T06:12:44;95413.75;;;14.26;100.00
62634;BME280;48704;50.534;6.442;2023-05-22T06:15:09;95417.31;;;14.32;100.00
62634;BME280;48704;50.534;6.442;2023-05-22T06:17:37;95409.69;;;14.38;100.00
62634;BME280;48704;50.534;6.442;2023-05-22T06:20:02;95417.88;;;14.58;100.00
62634;BME280;48704;50.534;6.442;2023-05-22T06:22:31;95412.81;;;14.68;100.00
62634;BME280;48704;50.534;6.442;2023-05-22T06:24:56;95413.47;;;14.18;100.00
62634;BME280;48704;50.534;6.442;2023-05-22T06:27:22;95415.34;;;14.60;100.00
62634;BME280;48704;50.534;6.442;2023-05-22T06:29:47;95412.28;;;14.69;100.00
62634;BME280;48704;50.534;6.442;2023-05-22T06:32:13;95418.91;;;14.66;100.00
62634;BME280;48704;50.534;6.442;2023-05-22T06:34:38;95420.94;;;14.60;100.00
62634;BME280;48704;50.534;6.442;2023-05-22T06:37:04;95414.06;;;14.61;100.00
62634;BME280;48704;50.534;6.442;2023-05-22T06:39:30;95418.16;;;14.83;100.00
62634;BME280;48704;50.534;6.442;2023-05-22T06:41:55;95424.00;;;15.18;100.00
62634;BME280;48704;50.534;6.442;2023-05-22T06:44:20;95426.06;;;15.12;100.00
62634;BME280;48704;50.534;6.442;2023-05-22T06:46:46;95425.28;;;14.95;100.00
62634;BME280;48704;50.534;6.442;2023-05-22T06:49:11;95429.63;;;15.18;100.00
62634;BME280;48704;50.534;6.442;2023-05-22T06:51:36;95424.75;;;15.30;100.00
62634;BME280;48704;50.534;6.442;2023-05-22T06:54:02;95430.06;;;15.45;100.00
62634;BME280;48704;50.534;6.442;2023-05-22T06:56:30;95427.53;;;15.47;100.00
62634;BME280;48704;50.534;6.442;2023-05-22T06:58:56;95432.13;;;15.38;100.00
62634;BME280;48704;50.534;6.442;2023-05-22T07:01:21;95426.78;;;15.35;100.00
62634;BME280;48704;50.534;6.442;2023-05-22T07:03:47;95433.44;;;15.21;100.00
62634;BME280;48704;50.534;6.442;2023-05-22T07:06:12;95439.03;;;15.37;100.00
62634;BME280;48704;50.534;6.442;2023-05-22T07:08:37;95440.28;;;15.48;100.00
62634;BME280;48704;50.534;6.442;2023-05-22T07:11:03;95444.13;;;15.45;100.00
62634;BME280;48704;50.534;6.442;2023-05-22T07:13:30;95448.97;;;15.27;100.00
62634;BME280;48704;50.534;6.442;2023-05-22T07:15:56;95446.16;;;15.55;100.00
62634;BME280;48704;50.534;6.442;2023-05-22T07:18:21;95446.34;;;15.85;100.00
62634;BME280;48704;50.534;6.442;2023-05-22T07:20:46;95446.09;;;15.78;100.00
62634;BME280;48704;50.534;6.442;2023-05-22T07:23:12;95448.97;;;15.50;100.00
62634;BME280;48704;50.534;6.442;2023-05-22T07:25:37;95454.34;;;15.59;100.00
62634;BME280;48704;50.534;6.442;2023-05-22T07:28:02;95453.97;;;15.90;100.00
62634;BME280;48704;50.534;6.442;2023-05-22T07:30:34;95460.88;;;15.95;100.00
62634;BME280;48704;50.534;6.442;2023-05-22T07:33:00;95460.53;;;16.10;100.00
62634;BME280;48704;50.534;6.442;2023-05-22T07:35:25;95451.03;;;16.24;100.00
62634;BME280;48704;50.534;6.442;2023-05-22T07:37:50;95459.44;;;16.24;100.00
62634;BME280;48704;50.534;6.442;2023-05-22T07:40:16;95459.50;;;16.65;100.00
62634;BME280;48704;50.534;6.442;2023-05-22T07:42:41;95459.38;;;16.82;100.00
62634;BME280;48704;50.534;6.442;2023-05-22T07:45:07;95460.03;;;16.99;100.00
62634;BME280;48704;50.534;6.442;2023-05-22T07:47:32;95458.75;;;16.64;100.00
62634;BME280;48704;50.534;6.442;2023-05-22T07:49:57;95457.44;;;17.01;100.00
62634;BME280;48704;50.534;6.442;2023-05-22T07:52:23;95458.38;;;17.09;100.00
62634;BME280;48704;50.534;6.442;2023-05-22T07:54:48;95459.75;;;16.61;100.00
62634;BME280;48704;50.534;6.442;2023-05-22T07:57:13;95463.66;;;16.94;100.00
62634;BME280;48704;50.534;6.442;2023-05-22T07:59:39;95467.91;;;16.70;100.00
62634;BME280;48704;50.534;6.442;2023-05-22T08:02:07;95465.94;;;17.25;100.00
62634;BME280;48704;50.534;6.442;2023-05-22T08:04:33;95469.59;;;17.75;100.00
62634;BME280;48704;50.534;6.442;2023-05-22T08:06:59;95461.44;;;17.71;100.00
62634;BME280;48704;50.534;6.442;2023-05-22T08:09:25;95458.03;;;17.24;100.00
62634;BME280;48704;50.534;6.442;2023-05-22T08:11:51;95464.41;;;17.24;100.00
62634;BME280;48704;50.534;6.442;2023-05-22T08:14:16;95463.59;;;17.84;100.00
62634;BME280;48704;50.534;6.442;2023-05-22T08:16:41;95462.75;;;17.64;100.00
62634;BME280;48704;50.534;6.442;2023-05-22T08:19:06;95461.81;;;17.56;100.00
62634;BME280;48704;50.534;6.442;2023-05-22T08:21:32;95464.31;;;17.65;100.00
62634;BME280;48704;50.534;6.442;2023-05-22T08:23:58;95463.88;;;18.04;100.00
62634;BME280;48704;50.534;6.442;2023-05-22T08:26:23;95450.88;;;18.39;100.00
62634;BME280;48704;50.534;6.442;2023-05-22T08:28:49;95462.16;;;18.58;100.00
62634;BME280;48704;50.534;6.442;2023-05-22T08:31:15;95457.94;;;18.27;100.00
62634;BME280;48704;50.534;6.442;2023-05-22T08:33:40;95457.44;;;18.47;100.00
62634;BME280;48704;50.534;6.442;2023-05-22T08:36:05;95454.38;;;18.45;100.00
62634;BME280;48704;50.534;6.442;2023-05-22T08:38:30;95458.59;;;19.08;100.00
62634;BME280;48704;50.534;6.442;2023-05-22T08:40:56;95458.00;;;18.96;100.00
62634;BME280;48704;50.534;6.442;2023-05-22T08:43:22;95466.28;;;19.26;100.00
62634;BME280;48704;50.534;6.442;2023-05-22T08:45:55;95454.16;;;18.81;100.00
62634;BME280;48704;50.534;6.442;2023-05-22T08:48:28;95455.31;;;19.36;100.00
62634;BME280;48704;50.534;6.442;2023-05-22T08:50:53;95458.91;;;19.04;100.00
62634;BME280;48704;50.534;6.442;2023-05-22T08:53:23;95450.63;;;19.25;100.00
62634;BME280;48704;50.534;6.442;2023-05-22T08:55:53;95457.22;;;19.15;100.00
62634;BME280;48704;50.534;6.442;2023-05-22T08:58:19;95452.94;;;19.98;100.00
62634;BME280;48704;50.534;6.442;2023-05-22T09:00:44;95458.44;;;20.44;100.00
62634;BME280;48704;50.534;6.442;2023-05-22T09:03:10;95461.63;;;20.40;100.00
62634;BME280;48704;50.534;6.442;2023-05-22T09:05:40;95458.22;;;20.55;100.00
62634;BME280;48704;50.534;6.442;2023-05-22T09:08:06;95454.97;;;20.85;100.00
62634;BME280;48704;50.534;6.442;2023-05-22T09:10:33;95454.84;;;20.90;100.00
62634;BME280;48704;50.534;6.442;2023-05-22T09:13:00;95458.91;;;20.82;100.00
62634;BME280;48704;50.534;6.442;2023-05-22T09:15:28;95454.19;;;20.84;100.00
62634;BME280;48704;50.534;6.442;2023-05-22T09:17:54;95450.88;;;20.73;100.00
62634;BME280;48704;50.534;6.442;2023-05-22T09:20:20;95455.00;;;20.38;100.00
62634;BME280;48704;50.534;6.442;2023-05-22T09:22:46;95456.53;;;20.73;100.00
62634;BME280;48704;50.534;6.442;2023-05-22T09:25:16;95454.72;;;20.96;100.00
62634;BME280;48704;50.534;6.442;2023-05-22T09:27:48;95462.91;;;20.52;100.00
62634;BME280;48704;50.534;6.442;2023-05-22T09:30:17;95458.38;;;21.04;100.00
62634;BME280;48704;50.534;6.442;2023-05-22T09:32:44;95459.00;;;20.29;100.00
62634;BME280;48704;50.534;6.442;2023-05-22T09:35:10;95455.53;;;20.23;100.00
62634;BME280;48704;50.534;6.442;2023-05-22T09:37:36;95459.88;;;20.11;100.00
62634;BME280;48704;50.534;6.442;2023-05-22T09:40:05;95462.91;;;20.13;100.00
62634;BME280;48704;50.534;6.442;2023-05-22T09:42:34;95458.00;;;20.87;100.00
62634;BME280;48704;50.534;6.442;2023-05-22T09:45:04;95449.69;;;21.02;100.00
62634;BME280;48704;50.534;6.442;2023-05-22T09:47:30;95460.28;;;20.54;100.00
62634;BME280;48704;50.534;6.442;2023-05-22T09:49:56;95458.00;;;20.87;100.00
62634;BME280;48704;50.534;6.442;2023-05-22T09:52:27;95460.72;;;21.47;100.00
62634;BME280;48704;50.534;6.442;2023-05-22T09:54:54;95458.44;;;21.46;100.00
62634;BME280;48704;50.534;6.442;2023-05-22T09:57:22;95458.44;;;20.57;100.00
62634;BME280;48704;50.534;6.442;2023-05-22T09:59:50;95456.66;;;21.63;100.00
62634;BME280;48704;50.534;6.442;2023-05-22T10:02:23;95456.13;;;21.23;100.00
62634;BME280;48704;50.534;6.442;2023-05-22T10:04:49;95458.13;;;21.57;100.00
62634;BME280;48704;50.534;6.442;2023-05-22T10:07:18;95458.75;;;21.91;100.00
62634;BME280;48704;50.534;6.442;2023-05-22T10:09:49;95458.69;;;21.34;100.00
62634;BME280;48704;50.534;6.442;2023-05-22T10:12:16;95468.03;;;21.43;100.00
62634;BME280;48704;50.534;6.442;2023-05-22T10:14:44;95459.84;;;20.50;100.00
62634;BME280;48704;50.534;6.442;2023-05-22T10:17:10;95460.09;;;19.99;100.00
62634;BME280;48704;50.534;6.442;2023-05-22T10:19:36;95460.19;;;21.15;100.00
62634;BME280;48704;50.534;6.442;2023-05-22T10:22:02;95467.28;;;20.40;100.00
62634;BME280;48704;50.534;6.442;2023-05-22T10:24:29;95463.03;;;20.07;100.00
62634;BME280;48704;50.534;6.442;2023-05-22T10:26:55;95462.19;;;20.39;100.00
62634;BME280;48704;50.534;6.442;2023-05-22T10:29:24;95461.78;;;20.68;100.00
62634;BME280;48704;50.534;6.442;2023-05-22T10:32:05;95461.59;;;20.87;100.00
62634;BME280;48704;50.534;6.442;2023-05-22T10:34:37;95457.19;;;20.79;100.00
62634;BME280;48704;50.534;6.442;2023-05-22T10:39:59;95459.50;;;21.84;100.00
62634;BME280;48704;50.534;6.442;2023-05-22T10:42:29;95457.88;;;21.26;100.00
62634;BME280;48704;50.534;6.442;2023-05-22T10:44:54;95462.97;;;21.28;100.00
62634;BME280;48704;50.534;6.442;2023-05-22T10:47:19;95458.19;;;21.64;100.00
62634;BME280;48704;50.534;6.442;2023-05-22T10:49:45;95457.88;;;22.25;100.00
62634;BME280;48704;50.534;6.442;2023-05-22T10:52:11;95456.50;;;23.06;99.02
62634;BME280;48704;50.534;6.442;2023-05-22T10:54:43;95457.13;;;22.24;100.00
62634;BME280;48704;50.534;6.442;2023-05-22T10:57:13;95460.66;;;21.40;100.00
62634;BME280;48704;50.534;6.442;2023-05-22T10:59:40;95457.84;;;21.68;100.00
62634;BME280;48704;50.534;6.442;2023-05-22T11:02:20;95448.84;;;21.77;100.00
62634;BME280;48704;50.534;6.442;2023-05-22T11:04:46;95461.13;;;21.51;100.00
62634;BME280;48704;50.534;6.442;2023-05-22T11:07:12;95466.31;;;22.10;100.00
62634;BME280;48704;50.534;6.442;2023-05-22T11:09:42;95462.06;;;21.75;100.00
62634;BME280;48704;50.534;6.442;2023-05-22T11:12:24;95469.00;;;21.45;100.00
62634;BME280;48704;50.534;6.442;2023-05-22T11:17:20;95459.09;;;22.45;100.00
62634;BME280;48704;50.534;6.442;2023-05-22T11:20:10;95455.63;;;21.74;100.00
62634;BME280;48704;50.534;6.442;2023-05-22T11:22:39;95457.22;;;22.47;100.00
62634;BME280;48704;50.534;6.442;2023-05-22T11:25:16;95457.34;;;23.37;96.51
62634;BME280;48704;50.534;6.442;2023-05-22T11:27:42;95452.22;;;23.88;89.79
62634;BME280;48704;50.534;6.442;2023-05-22T11:30:08;95448.31;;;22.43;98.57
62634;BME280;48704;50.534;6.442;2023-05-22T11:32:37;95445.38;;;23.30;92.12
62634;BME280;48704;50.534;6.442;2023-05-22T11:35:03;95448.03;;;23.44;93.42
62634;BME280;48704;50.534;6.442;2023-05-22T11:37:30;95440.06;;;23.34;93.34
62634;BME280;48704;50.534;6.442;2023-05-22T11:39:57;95440.16;;;21.54;100.00
62634;BME280;48704;50.534;6.442;2023-05-22T11:42:23;95443.59;;;21.81;100.00
62634;BME280;48704;50.534;6.442;2023-05-22T11:44:49;95447.81;;;21.95;100.00
62634;BME280;48704;50.534;6.442;2023-05-22T11:47:15;95451.47;;;20.92;100.00
62634;BME280;48704;50.534;6.442;2023-05-22T11:49:41;95454.50;;;20.94;100.00
62634;BME280;48704;50.534;6.442;2023-05-22T11:52:07;95449.09;;;20.35;100.00
62634;BME280;48704;50.534;6.442;2023-05-22T11:54:33;95452.00;;;20.56;100.00
62634;BME280;48704;50.534;6.442;2023-05-22T11:56:58;95452.47;;;19.81;100.00
62634;BME280;48704;50.534;6.442;2023-05-22T11:59:23;95453.16;;;21.08;100.00
62634;BME280;48704;50.534;6.442;2023-05-22T12:01:49;95450.25;;;21.21;100.00
62634;BME280;48704;50.534;6.442;2023-05-22T12:04:15;95454.66;;;22.00;100.00
62634;BME280;48704;50.534;6.442;2023-05-22T12:06:41;95452.75;;;21.25;100.00
62634;BME280;48704;50.534;6.442;2023-05-22T12:09:06;95458.53;;;20.64;100.00
62634;BME280;48704;50.534;6.442;2023-05-22T12:11:36;95452.28;;;21.83;100.00
62634;BME280;48704;50.534;6.442;2023-05-22T12:14:04;95462.53;;;21.86;100.00
62634;BME280;48704;50.534;6.442;2023-05-22T12:16:34;95462.66;;;22.01;98.14
62634;BME280;48704;50.534;6.442;2023-05-22T12:19:07;95465.06;;;21.27;100.00
62634;BME280;48704;50.534;6.442;2023-05-22T12:21:33;95452.56;;;21.44;100.00
62634;BME280;48704;50.534;6.442;2023-05-22T12:24:02;95451.84;;;21.30;100.00
62634;BME280;48704;50.534;6.442;2023-05-22T12:26:28;95453.81;;;21.01;100.00
62634;BME280;48704;50.534;6.442;2023-05-22T12:28:53;95445.28;;;20.80;100.00
62634;BME280;48704;50.534;6.442;2023-05-22T12:31:23;95455.56;;;22.16;100.00
62634;BME280;48704;50.534;6.442;2023-05-22T12:33:55;95452.72;;;21.95;100.00
62634;BME280;48704;50.534;6.442;2023-05-22T12:36:29;95453.66;;;21.41;100.00
62634;BME280;48704;50.534;6.442;2023-05-22T12:38:56;95451.09;;;20.75;100.00
62634;BME280;48704;50.534;6.442;2023-05-22T12:41:21;95447.22;;;20.51;100.00
62634;BME280;48704;50.534;6.442;2023-05-22T12:43:46;95443.13;;;20.39;100.00
62634;BME280;48704;50.534;6.442;2023-05-22T12:46:12;95450.34;;;20.95;100.00
62634;BME280;48704;50.534;6.442;2023-05-22T12:48:37;95447.69;;;20.16;100.00
62634;BME280;48704;50.534;6.442;2023-05-22T12:51:02;95447.44;;;21.21;100.00
62634;BME280;48704;50.534;6.442;2023-05-22T12:53:28;95454.03;;;21.03;100.00
62634;BME280;48704;50.534;6.442;2023-05-22T12:55:53;95448.50;;;21.81;100.00
62634;BME280;48704;50.534;6.442;2023-05-22T12:58:18;95445.50;;;21.86;100.00